Hauptseite
METAR-TAF:

METAR-TAF

Flughäfen :

Flughafen Kuching

Kuching, Malaysia

Breite: 01-29N, Länge: 110-20E, Höhe: 27 m

Beobachtung

Neuester Wetterbericht von vor 34 Minuten, um 18:30 UTC
Wind 2 kt aus unterschiedlichen Richtungen
Temperatur 26°C
Luftfeuchtigkeit 94%
Luftdruck 1010 hPa
Sichtweite 10 km oder mehr
Leicht bewölkt in der Höhe von 2000 ft

METAR: WBGG 181830Z VRB02KT 9999 FEW020 26/25 Q1010 NOSIG

Zeit: 03:04 (19:04 UTC)

Prognose

Neuester Wetterbericht von vor 2 Stunden und 4 Minuten, um 17:00 UTC
Gültige Prognose vom 18 um 18 UTC bis 19 um 18 UTC
Wind 3 kt aus unterschiedlichen Richtungen
Sichtweite 10 km oder mehr
Leicht bewölkt in der Höhe von 2000 ft

TAF: WBGG 181700Z 1818/1918 VRB03KT 9999 FEW020

Wetterbeobachtungen und Prognosen von mehr als 4000 Flughäfen (METAR und TAF Bericht).

Die verfügbaren Stationen werden durch gelbe und rote Markierungen auf der Karte dargestellt.

Führen Sie die Maus auf sie, um den Namen der Station zu sehen.

Darauf klicken, um die Beobachtung von Wetterbeobachtungen und Prognosen zu sehen.

Um die Karte zu ändern : klicken Sie auf den grünen Tasten mit einem schwarzen Kreuz Zum Vergrößern, auf den grünen Button mit einem Gedankenstrich zu verkleinern, oder auf die grünen Pfeile für benachbarte Karten.


METAR-TAF: